createdAt,value
2019-05-14T00:01:03.168Z,6.78
2019-05-14T00:02:37.709Z,7.22
2019-05-14T00:04:12.516Z,6.83
2019-05-14T00:05:46.720Z,7.47
2019-05-14T00:07:22.400Z,7.30
2019-05-14T00:08:56.993Z,7.60
2019-05-14T00:10:32.305Z,14.33
2019-05-14T00:12:07.013Z,6.60
2019-05-14T00:13:41.764Z,6.25
2019-05-14T00:15:16.592Z,6.97
2019-05-14T00:16:51.494Z,12.47
2019-05-14T00:18:25.713Z,8.25
2019-05-14T00:20:07.207Z,6.83
2019-05-14T00:21:38.039Z,5.92
2019-05-14T00:23:12.844Z,8.48
2019-05-14T00:24:47.048Z,6.83
2019-05-14T00:26:21.816Z,8.23
2019-05-14T00:27:56.615Z,8.95
2019-05-14T00:29:32.599Z,6.28
2019-05-14T00:31:06.807Z,6.85
2019-05-14T00:32:41.647Z,8.78
2019-05-14T00:34:16.112Z,8.80
2019-05-14T00:35:51.472Z,6.15
2019-05-14T00:37:25.988Z,7.58
2019-05-14T00:39:01.839Z,7.65
2019-05-14T00:40:36.524Z,8.95
2019-05-14T00:42:13.904Z,9.10
2019-05-14T00:43:51.341Z,7.30
2019-05-14T00:45:25.992Z,7.90
2019-05-14T00:47:02.183Z,7.65
2019-05-14T00:48:36.788Z,7.60
2019-05-14T00:50:11.674Z,7.60
2019-05-14T00:51:46.520Z,6.45
2019-05-14T00:53:21.474Z,9.50
2019-05-14T00:54:56.560Z,8.48
2019-05-14T00:56:32.124Z,9.23
2019-05-14T00:58:07.081Z,7.55
2019-05-14T00:59:42.292Z,11.10
2019-05-14T01:01:17.052Z,8.90
2019-05-14T01:02:51.909Z,8.95
2019-05-14T01:04:27.152Z,8.88
2019-05-14T01:06:02.957Z,9.95
2019-05-14T01:07:37.890Z,7.83
2019-05-14T01:09:14.148Z,11.43
2019-05-14T01:10:50.968Z,8.88
2019-05-14T01:12:25.072Z,7.80
2019-05-14T01:14:01.661Z,7.97
2019-05-14T01:15:35.687Z,8.23
2019-05-14T01:17:11.246Z,7.60
2019-05-14T01:18:46.105Z,8.43
2019-05-14T01:20:21.332Z,8.88
2019-05-14T01:21:55.577Z,10.13
2019-05-14T01:23:32.369Z,9.23
2019-05-14T01:25:06.759Z,9.20
2019-05-14T01:26:41.711Z,12.40
2019-05-14T01:28:16.098Z,9.08
2019-05-14T01:29:51.434Z,10.55
2019-05-14T01:31:26.228Z,10.43
2019-05-14T01:33:01.782Z,13.68
2019-05-14T01:34:36.284Z,12.20
2019-05-14T01:36:12.321Z,8.55
2019-05-14T01:37:46.747Z,9.38
2019-05-14T01:39:21.688Z,15.18
2019-05-14T01:40:55.937Z,11.90
2019-05-14T01:42:32.104Z,10.15
2019-05-14T01:44:06.648Z,8.93
2019-05-14T01:45:41.785Z,11.20
2019-05-14T01:47:17.899Z,10.43
2019-05-14T01:48:52.670Z,9.88
2019-05-14T01:50:27.081Z,10.75
2019-05-14T01:52:01.973Z,10.13
2019-05-14T01:53:36.192Z,10.50
2019-05-14T01:55:12.067Z,11.53
2019-05-14T01:56:46.459Z,12.10
2019-05-14T01:58:22.076Z,9.55
2019-05-14T01:59:56.605Z,10.95
2019-05-14T02:01:31.675Z,9.65
2019-05-14T02:03:06.384Z,9.18
2019-05-14T02:04:43.029Z,10.78
2019-05-14T02:06:18.176Z,11.57
2019-05-14T02:07:52.774Z,11.33
2019-05-14T02:09:27.296Z,12.68
2019-05-14T02:11:02.136Z,10.53
2019-05-14T02:12:37.986Z,10.58
2019-05-14T02:14:14.117Z,11.93
2019-05-14T02:15:48.640Z,11.83
2019-05-14T02:17:23.406Z,14.50
2019-05-14T02:18:57.753Z,8.00
2019-05-14T02:20:32.514Z,10.00
2019-05-14T02:22:06.837Z,8.48
2019-05-14T02:23:42.043Z,9.43
2019-05-14T02:25:16.573Z,8.48
2019-05-14T02:26:51.584Z,9.48
2019-05-14T02:28:31.522Z,12.88
2019-05-14T02:30:09.368Z,9.55
2019-05-14T02:31:43.931Z,10.53
2019-05-14T02:33:19.262Z,10.40
2019-05-14T02:34:54.413Z,10.38
2019-05-14T02:36:30.845Z,10.53
2019-05-14T02:38:06.205Z,11.48
2019-05-14T02:39:42.296Z,10.93
2019-05-14T02:41:19.597Z,12.82
2019-05-14T02:42:53.125Z,10.32
2019-05-14T02:44:29.876Z,8.80
2019-05-14T02:46:11.840Z,9.30
2019-05-14T02:47:41.015Z,9.60
2019-05-14T02:49:15.604Z,11.38
2019-05-14T02:50:50.007Z,10.85
2019-05-14T02:52:24.617Z,10.68
2019-05-14T02:53:59.449Z,11.08
2019-05-14T02:55:34.424Z,10.40
2019-05-14T02:57:10.789Z,14.18
2019-05-14T02:58:49.624Z,11.85
2019-05-14T03:00:22.523Z,10.15
2019-05-14T03:01:59.155Z,11.45
2019-05-14T03:03:33.169Z,14.13
2019-05-14T03:05:09.815Z,39.27
2019-05-14T03:06:44.797Z,37.13
2019-05-14T03:08:20.038Z,17.92
2019-05-14T03:09:54.684Z,13.93
2019-05-14T03:11:29.887Z,15.03
2019-05-14T03:13:04.666Z,11.33
2019-05-14T03:14:39.833Z,10.95
2019-05-14T03:16:26.130Z,12.53
2019-05-14T03:17:50.965Z,11.50
2019-05-14T03:19:25.836Z,14.45
2019-05-14T03:21:01.079Z,12.07
2019-05-14T03:22:46.350Z,10.95
2019-05-14T03:24:14.269Z,12.25
2019-05-14T03:25:49.428Z,14.60
2019-05-14T03:27:24.193Z,14.03
2019-05-14T03:29:00.102Z,16.45
2019-05-14T03:30:35.029Z,15.13
2019-05-14T03:32:12.899Z,10.88
2019-05-14T03:33:51.771Z,12.20
2019-05-14T03:35:24.758Z,11.28
2019-05-14T03:37:03.368Z,15.40
2019-05-14T03:38:35.118Z,14.07
2019-05-14T03:40:10.134Z,11.60
2019-05-14T03:41:44.524Z,17.48
2019-05-14T03:43:19.931Z,12.95
2019-05-14T03:44:55.204Z,11.15
2019-05-14T03:46:43.961Z,13.90
2019-05-14T03:48:05.941Z,12.82
2019-05-14T03:49:40.521Z,15.90
2019-05-14T03:51:15.165Z,10.43
2019-05-14T03:52:50.273Z,11.55
2019-05-14T03:54:24.691Z,13.55
2019-05-14T03:56:00.221Z,11.60
2019-05-14T03:57:34.988Z,12.53
2019-05-14T03:59:11.166Z,12.90
2019-05-14T04:00:54.199Z,14.53
2019-05-14T04:02:29.822Z,8.60
2019-05-14T04:04:04.836Z,10.98
2019-05-14T04:05:40.204Z,10.40
2019-05-14T04:07:15.453Z,9.90
2019-05-14T04:08:51.922Z,8.00
2019-05-14T04:10:29.829Z,9.10
2019-05-14T04:12:04.922Z,7.70
2019-05-14T04:13:41.376Z,7.17
2019-05-14T04:15:19.197Z,7.50
2019-05-14T04:17:05.475Z,7.97
2019-05-14T04:18:33.750Z,14.07
2019-05-14T04:20:09.473Z,14.18
2019-05-14T04:21:48.873Z,21.35
2019-05-14T04:23:24.994Z,20.15
2019-05-14T04:25:01.226Z,18.85
2019-05-14T04:26:56.132Z,19.12
2019-05-14T04:28:19.450Z,19.92
2019-05-14T04:29:54.667Z,19.20
2019-05-14T04:31:32.803Z,23.27
2019-05-14T04:33:10.775Z,11.12
2019-05-14T04:34:45.804Z,16.17
2019-05-14T04:36:20.154Z,17.70
2019-05-14T04:37:54.929Z,13.18
2019-05-14T04:39:30.745Z,11.08
2019-05-14T04:41:06.297Z,6.60
2019-05-14T04:42:40.720Z,4.80
2019-05-14T04:44:18.932Z,5.58
2019-05-14T04:45:53.176Z,8.30
2019-05-14T04:47:36.659Z,15.50
2019-05-14T04:49:04.173Z,13.53
2019-05-14T04:50:41.277Z,13.00
2019-05-14T04:52:15.485Z,17.05
2019-05-14T04:53:50.544Z,15.80
2019-05-14T04:55:25.449Z,15.23
2019-05-14T04:57:00.401Z,14.10
2019-05-14T04:58:36.086Z,12.25
2019-05-14T05:00:12.835Z,7.62
2019-05-14T05:01:49.338Z,7.65
2019-05-14T05:03:23.889Z,6.53
2019-05-14T05:04:59.426Z,6.05
2019-05-14T05:06:34.670Z,3.22
2019-05-14T05:08:13.409Z,2.02
2019-05-14T05:09:45.858Z,1.82
2019-05-14T05:11:21.495Z,2.30
2019-05-14T05:12:58.579Z,1.95
2019-05-14T05:14:32.950Z,8.75
2019-05-14T05:16:09.897Z,15.65
2019-05-14T05:17:48.559Z,14.35
2019-05-14T05:19:20.176Z,21.87
2019-05-14T05:20:54.493Z,14.30
2019-05-14T05:22:29.288Z,10.00
2019-05-14T05:24:03.542Z,19.15
2019-05-14T05:25:38.491Z,10.32
2019-05-14T05:27:13.376Z,12.25
2019-05-14T05:29:02.856Z,10.25
2019-05-14T05:30:29.475Z,11.28
2019-05-14T05:32:03.913Z,5.78
2019-05-14T05:33:38.560Z,6.05
2019-05-14T05:35:14.597Z,3.62
2019-05-14T05:36:50.510Z,9.48
2019-05-14T05:38:25.268Z,2.62
2019-05-14T05:39:59.752Z,2.22
2019-05-14T05:41:34.559Z,2.22
2019-05-14T05:43:09.019Z,2.70
2019-05-14T05:44:43.969Z,3.67
2019-05-14T05:46:19.264Z,4.60
2019-05-14T05:47:58.185Z,1.90
2019-05-14T05:49:30.264Z,3.35
2019-05-14T05:51:05.502Z,2.12
2019-05-14T05:52:41.415Z,9.45
2019-05-14T05:54:18.355Z,3.65
2019-05-14T05:55:53.541Z,3.10
2019-05-14T05:57:28.537Z,2.20
2019-05-14T05:59:03.156Z,8.80
2019-05-14T06:00:40.466Z,3.70
2019-05-14T06:02:15.190Z,2.65
2019-05-14T06:03:49.961Z,2.12
2019-05-14T06:05:24.281Z,3.05
2019-05-14T06:07:02.207Z,1.92
2019-05-14T06:08:34.988Z,3.33
2019-05-14T06:10:09.954Z,3.25
2019-05-14T06:11:44.413Z,4.15
2019-05-14T06:13:19.650Z,3.95
2019-05-14T06:14:53.854Z,2.17
2019-05-14T06:16:29.038Z,3.55
2019-05-14T06:18:17.060Z,3.35
2019-05-14T06:19:41.998Z,2.40
2019-05-14T06:21:19.019Z,4.95
2019-05-14T06:22:54.208Z,2.00
2019-05-14T06:24:28.676Z,4.90
2019-05-14T06:26:03.385Z,1.92
2019-05-14T06:27:38.012Z,6.53
2019-05-14T06:29:13.500Z,3.50
2019-05-14T06:30:48.507Z,6.35
2019-05-14T06:32:25.773Z,4.87
2019-05-14T06:34:00.052Z,3.25
2019-05-14T06:35:34.835Z,2.47
2019-05-14T06:37:09.166Z,4.28
2019-05-14T06:38:43.948Z,2.62
2019-05-14T06:40:19.314Z,2.42
2019-05-14T06:41:54.376Z,4.30
2019-05-14T06:43:29.039Z,2.00
2019-05-14T06:45:04.381Z,3.22
2019-05-14T06:46:39.110Z,3.80
2019-05-14T06:48:27.038Z,2.77
2019-05-14T06:49:51.828Z,3.10
2019-05-14T06:51:28.857Z,5.17
2019-05-14T06:53:02.532Z,3.98
2019-05-14T06:54:38.718Z,2.75
2019-05-14T06:56:13.469Z,2.95
2019-05-14T06:57:48.809Z,4.53
2019-05-14T06:59:24.460Z,4.62
2019-05-14T07:01:00.617Z,3.87
2019-05-14T07:02:35.225Z,4.67
2019-05-14T07:04:10.025Z,4.28
2019-05-14T07:05:44.228Z,3.47
2019-05-14T07:07:20.669Z,6.05
2019-05-14T07:08:58.861Z,3.50
2019-05-14T07:10:35.113Z,8.18
2019-05-14T07:12:09.389Z,2.95
2019-05-14T07:13:44.156Z,5.15
2019-05-14T07:15:19.368Z,5.00
2019-05-14T07:16:58.603Z,3.67
2019-05-14T07:18:45.443Z,3.95
2019-05-14T07:20:10.420Z,5.42
2019-05-14T07:21:48.947Z,3.80
2019-05-14T07:23:22.957Z,4.67
2019-05-14T07:24:58.834Z,7.62
2019-05-14T07:26:35.042Z,6.62
2019-05-14T07:28:09.493Z,6.65
2019-05-14T07:29:44.365Z,13.35
2019-05-14T07:31:18.865Z,10.95
2019-05-14T07:32:53.839Z,11.28
2019-05-14T07:34:28.573Z,11.33
2019-05-14T07:36:03.379Z,10.20
2019-05-14T07:37:39.699Z,13.15
2019-05-14T07:39:14.006Z,11.00
2019-05-14T07:40:49.433Z,13.75
2019-05-14T07:42:24.674Z,19.23
2019-05-14T07:43:59.020Z,15.48
2019-05-14T07:45:33.881Z,18.35
2019-05-14T07:47:08.486Z,15.20
2019-05-14T07:48:43.432Z,12.45
2019-05-14T07:50:19.702Z,14.98
2019-05-14T07:51:54.736Z,15.55
2019-05-14T07:53:38.642Z,14.28
2019-05-14T07:55:09.240Z,11.57
2019-05-14T07:56:43.636Z,13.35
2019-05-14T07:58:19.512Z,12.58
2019-05-14T07:59:54.237Z,10.65
2019-05-14T08:01:29.116Z,10.88
2019-05-14T08:03:03.326Z,13.38
2019-05-14T08:04:38.246Z,10.55
2019-05-14T08:06:12.923Z,8.68
2019-05-14T08:07:48.135Z,10.88
2019-05-14T08:09:22.485Z,8.63
2019-05-14T08:10:59.158Z,11.73
2019-05-14T08:12:33.446Z,9.55
2019-05-14T08:14:09.058Z,6.20
2019-05-14T08:15:43.604Z,9.70
2019-05-14T08:17:19.055Z,8.73
2019-05-14T08:18:53.557Z,9.98
2019-05-14T08:20:28.649Z,8.63
2019-05-14T08:22:02.992Z,7.70
2019-05-14T08:23:39.196Z,4.75
2019-05-14T08:25:14.032Z,6.30
2019-05-14T08:26:48.819Z,4.60
2019-05-14T08:28:23.010Z,5.47
2019-05-14T08:29:58.918Z,9.78
2019-05-14T08:31:33.552Z,5.30
2019-05-14T08:33:09.095Z,4.83
2019-05-14T08:34:44.800Z,5.03
2019-05-14T08:36:20.097Z,4.85
2019-05-14T08:38:06.508Z,4.72
2019-05-14T08:39:30.732Z,5.62
2019-05-14T08:41:04.943Z,7.30
2019-05-14T08:42:40.098Z,6.60
2019-05-14T08:44:14.307Z,6.00
2019-05-14T08:45:49.081Z,7.87
2019-05-14T08:47:23.277Z,7.40
2019-05-14T08:48:58.724Z,4.87
2019-05-14T08:50:33.327Z,6.45
2019-05-14T08:52:08.841Z,7.35
2019-05-14T08:53:43.257Z,8.25
2019-05-14T08:55:18.540Z,5.40
2019-05-14T08:56:52.898Z,7.03
2019-05-14T08:58:30.066Z,5.62
2019-05-14T09:00:05.442Z,7.67
2019-05-14T09:01:55.960Z,7.10
2019-05-14T09:03:19.037Z,5.92
2019-05-14T09:04:54.789Z,5.70
2019-05-14T09:06:29.161Z,8.38
2019-05-14T09:08:04.121Z,9.70
2019-05-14T09:09:38.423Z,9.05
2019-05-14T09:11:14.255Z,10.20
2019-05-14T09:12:49.099Z,8.85
2019-05-14T09:14:24.642Z,7.22
2019-05-14T09:15:58.875Z,7.78
2019-05-14T09:17:33.457Z,7.58
2019-05-14T09:19:08.757Z,7.87
2019-05-14T09:20:44.038Z,7.47
2019-05-14T09:22:18.643Z,8.00
2019-05-14T09:23:53.620Z,6.47
2019-05-14T09:25:29.201Z,6.92
2019-05-14T09:27:05.558Z,10.18
2019-05-14T09:28:39.861Z,8.13
2019-05-14T09:30:14.501Z,7.92
2019-05-14T09:31:49.428Z,7.90
2019-05-14T09:33:24.976Z,7.47
2019-05-14T09:34:59.688Z,6.70
2019-05-14T09:36:34.459Z,13.20
2019-05-14T09:38:09.082Z,10.30
2019-05-14T09:39:46.117Z,10.55
2019-05-14T09:41:20.855Z,10.20
2019-05-14T09:42:58.496Z,9.00
2019-05-14T09:44:31.488Z,9.70
2019-05-14T09:46:08.784Z,8.45
2019-05-14T09:47:42.240Z,8.60
2019-05-14T09:49:18.738Z,9.83
2019-05-14T09:50:53.376Z,9.83
2019-05-14T09:52:29.277Z,11.93
2019-05-14T09:54:04.406Z,12.88
2019-05-14T09:55:39.189Z,12.88
2019-05-14T09:57:13.416Z,8.73
2019-05-14T09:58:49.636Z,14.63
2019-05-14T10:00:24.611Z,8.55
2019-05-14T10:02:00.865Z,14.45
2019-05-14T10:03:35.129Z,9.03
2019-05-14T10:05:10.667Z,7.55
2019-05-14T10:06:44.909Z,7.40
2019-05-14T10:08:19.672Z,6.70
2019-05-14T10:09:53.892Z,8.90
2019-05-14T10:11:29.132Z,6.35
2019-05-14T10:13:03.366Z,8.63
2019-05-14T10:14:39.302Z,6.92
2019-05-14T10:16:14.044Z,6.70
2019-05-14T10:17:50.053Z,9.45
2019-05-14T10:19:24.393Z,8.20
2019-05-14T10:20:59.221Z,9.10
2019-05-14T10:22:33.500Z,7.33
2019-05-14T10:24:09.313Z,4.72
2019-05-14T10:25:43.743Z,5.67
2019-05-14T10:27:18.941Z,5.55
2019-05-14T10:28:53.368Z,6.45
2019-05-14T10:30:28.704Z,6.55
2019-05-14T10:32:03.241Z,4.58
2019-05-14T10:33:37.776Z,5.20
2019-05-14T10:35:12.620Z,5.67
2019-05-14T10:36:47.831Z,4.90
2019-05-14T10:38:22.044Z,5.62
2019-05-14T10:39:58.588Z,4.37
2019-05-14T10:41:32.769Z,6.08
2019-05-14T10:43:09.085Z,6.90
2019-05-14T10:44:43.552Z,7.03
2019-05-14T10:46:19.306Z,4.22
2019-05-14T10:47:55.540Z,4.40
2019-05-14T10:49:30.608Z,4.45
2019-05-14T10:51:04.812Z,7.25
2019-05-14T10:52:40.922Z,5.50
2019-05-14T10:54:22.256Z,12.40
2019-05-14T10:55:52.360Z,9.55
2019-05-14T10:57:28.835Z,5.55
2019-05-14T10:59:02.985Z,6.17
2019-05-14T11:00:41.587Z,5.72
2019-05-14T11:02:14.021Z,5.60
2019-05-14T11:03:48.513Z,5.97
2019-05-14T11:05:23.280Z,5.53
2019-05-14T11:06:58.341Z,5.85
2019-05-14T11:08:33.560Z,5.65
2019-05-14T11:10:09.220Z,5.50
2019-05-14T11:11:44.248Z,6.12
2019-05-14T11:13:19.172Z,5.50
2019-05-14T11:14:54.242Z,6.45
2019-05-14T11:16:28.554Z,6.58
2019-05-14T11:18:03.308Z,9.83
2019-05-14T11:19:38.950Z,7.03
2019-05-14T11:21:24.874Z,5.85
2019-05-14T11:22:50.011Z,6.95
2019-05-14T11:24:24.760Z,8.13
2019-05-14T11:25:59.068Z,6.37
2019-05-14T11:27:34.148Z,4.97
2019-05-14T11:29:08.372Z,5.35
2019-05-14T11:30:43.217Z,4.80
2019-05-14T11:32:18.406Z,4.83
2019-05-14T11:33:54.055Z,6.92
2019-05-14T11:35:28.789Z,6.95
2019-05-14T11:37:04.028Z,5.90
2019-05-14T11:38:38.248Z,7.12
2019-05-14T11:40:14.273Z,4.53
2019-05-14T11:41:49.232Z,7.30
2019-05-14T11:43:24.262Z,6.10
2019-05-14T11:44:58.540Z,6.45
2019-05-14T11:46:43.610Z,6.42
2019-05-14T11:48:10.835Z,5.85
2019-05-14T11:49:45.803Z,6.30
2019-05-14T11:51:53.103Z,5.75
2019-05-14T11:52:59.436Z,7.83
2019-05-14T11:54:33.645Z,5.12
2019-05-14T11:56:08.812Z,6.53
2019-05-14T11:57:44.611Z,5.30
2019-05-14T11:59:19.627Z,5.95
2019-05-14T12:00:53.830Z,6.70
2019-05-14T12:02:30.056Z,5.92
2019-05-14T12:04:04.268Z,6.33
2019-05-14T12:05:39.543Z,6.25
2019-05-14T12:07:13.804Z,5.05
2019-05-14T12:08:48.624Z,5.72
2019-05-14T12:10:23.547Z,6.08
2019-05-14T12:11:59.639Z,8.93
2019-05-14T12:13:33.850Z,4.53
2019-05-14T12:15:09.948Z,4.05
2019-05-14T12:16:44.162Z,6.03
2019-05-14T12:18:18.951Z,4.47
2019-05-14T12:19:53.140Z,4.72
2019-05-14T12:21:29.063Z,4.08
2019-05-14T12:23:03.282Z,4.58
2019-05-14T12:24:38.740Z,3.83
2019-05-14T12:26:13.285Z,5.45
2019-05-14T12:27:49.589Z,6.47
2019-05-14T12:29:23.965Z,5.05
2019-05-14T12:30:59.053Z,4.85
2019-05-14T12:32:33.294Z,4.40
2019-05-14T12:34:08.063Z,5.30
2019-05-14T12:35:42.273Z,4.65
2019-05-14T12:37:18.601Z,3.62
2019-05-14T12:38:53.258Z,3.52
2019-05-14T12:40:28.867Z,4.97
2019-05-14T12:42:03.326Z,6.33
2019-05-14T12:43:39.663Z,7.90
2019-05-14T12:45:18.807Z,5.03
2019-05-14T12:46:52.127Z,6.70
2019-05-14T12:48:26.341Z,5.75
2019-05-14T12:50:01.332Z,8.18
2019-05-14T12:51:39.405Z,3.75
2019-05-14T12:53:12.013Z,5.33
2019-05-14T12:54:46.281Z,5.42
2019-05-14T12:56:21.319Z,10.50
2019-05-14T12:57:55.577Z,3.85
2019-05-14T12:59:30.351Z,3.90
2019-05-14T13:01:04.561Z,5.65
2019-05-14T13:02:39.473Z,4.45
2019-05-14T13:04:13.734Z,5.17
2019-05-14T13:05:49.095Z,6.55
2019-05-14T13:07:23.873Z,7.30
2019-05-14T13:08:59.007Z,4.15
2019-05-14T13:10:33.253Z,5.25
2019-05-14T13:12:11.201Z,4.40
2019-05-14T13:13:44.040Z,4.30
2019-05-14T13:15:20.283Z,6.37
2019-05-14T13:16:54.870Z,15.78
2019-05-14T13:18:30.138Z,4.25
2019-05-14T13:20:13.172Z,4.20
2019-05-14T13:21:43.520Z,3.65
2019-05-14T13:23:18.440Z,4.20
2019-05-14T13:24:53.370Z,5.22
2019-05-14T13:26:29.702Z,4.30
2019-05-14T13:28:04.585Z,6.65
2019-05-14T13:29:38.806Z,4.75
2019-05-14T13:31:13.583Z,6.60
2019-05-14T13:32:49.078Z,5.72
2019-05-14T13:34:24.570Z,5.80
2019-05-14T13:35:59.557Z,7.17
2019-05-14T13:37:34.688Z,9.03
2019-05-14T13:39:09.508Z,4.50
2019-05-14T13:40:44.625Z,5.70
2019-05-14T13:42:20.332Z,4.92
2019-05-14T13:43:55.333Z,7.47
2019-05-14T13:45:30.279Z,5.45
2019-05-14T13:47:05.469Z,6.53
2019-05-14T13:48:43.581Z,6.05
2019-05-14T13:50:19.777Z,4.47
2019-05-14T13:51:54.042Z,6.83
2019-05-14T13:53:29.598Z,6.80
2019-05-14T13:55:04.724Z,5.20
2019-05-14T13:56:41.086Z,5.22
2019-05-14T13:58:15.296Z,4.60
2019-05-14T13:59:50.436Z,6.42
2019-05-14T14:01:24.647Z,5.90
2019-05-14T14:02:59.413Z,8.03
2019-05-14T14:04:33.626Z,5.87
2019-05-14T14:06:10.447Z,5.55
2019-05-14T14:07:44.985Z,5.10
2019-05-14T14:09:20.199Z,7.12
2019-05-14T14:10:54.704Z,5.72
2019-05-14T14:12:32.366Z,9.03
2019-05-14T14:14:08.931Z,8.53
2019-05-14T14:15:43.506Z,6.75
2019-05-14T14:17:18.474Z,5.85
2019-05-14T14:18:53.843Z,7.05
2019-05-14T14:20:29.107Z,6.58
2019-05-14T14:22:04.489Z,8.88
2019-05-14T14:23:39.461Z,14.93
2019-05-14T14:25:17.746Z,6.25
2019-05-14T14:26:51.750Z,11.55
2019-05-14T14:28:26.519Z,8.50
2019-05-14T14:30:00.737Z,7.10
2019-05-14T14:31:35.816Z,7.87
2019-05-14T14:33:12.953Z,9.65
2019-05-14T14:34:47.715Z,7.95
2019-05-14T14:36:23.305Z,9.73
2019-05-14T14:37:59.136Z,8.93
2019-05-14T14:39:33.600Z,7.37
2019-05-14T14:41:10.158Z,7.17
2019-05-14T14:42:44.291Z,5.87
2019-05-14T14:44:19.606Z,7.60
2019-05-14T14:45:53.836Z,6.25
2019-05-14T14:47:29.355Z,8.18
2019-05-14T14:49:03.803Z,8.83
2019-05-14T14:50:39.066Z,7.58
2019-05-14T14:52:13.212Z,6.65
2019-05-14T14:53:59.059Z,5.97
2019-05-14T14:55:23.893Z,6.83
2019-05-14T14:56:59.287Z,6.78
2019-05-14T14:58:33.641Z,5.90
2019-05-14T15:00:11.054Z,8.90
2019-05-14T15:13:32.818Z,7.03
2019-05-14T15:15:07.700Z,6.92
2019-05-14T15:16:41.990Z,6.85
2019-05-14T15:18:18.790Z,6.80
2019-05-14T15:19:52.736Z,8.63
2019-05-14T15:21:30.001Z,15.83
2019-05-14T15:23:03.514Z,7.08
2019-05-14T15:24:38.274Z,8.35
2019-05-14T15:26:12.642Z,8.35
2019-05-14T15:27:49.089Z,7.17
2019-05-14T15:29:23.562Z,8.03
2019-05-14T15:30:59.579Z,8.48
2019-05-14T15:32:34.302Z,9.78
2019-05-14T15:34:09.221Z,11.45
2019-05-14T15:35:45.237Z,8.10
2019-05-14T15:37:20.062Z,10.00
2019-05-14T15:38:54.314Z,8.60
2019-05-14T15:40:29.245Z,8.75
2019-05-14T15:42:05.272Z,7.50
2019-05-14T15:43:39.915Z,9.05
2019-05-14T15:45:14.498Z,7.33
2019-05-14T15:46:49.442Z,10.45
2019-05-14T15:48:23.757Z,7.45
2019-05-14T15:49:59.488Z,8.98
2019-05-14T15:51:34.407Z,10.35
2019-05-14T15:53:11.305Z,10.00
2019-05-14T15:54:47.327Z,8.63
2019-05-14T15:56:21.541Z,7.20
2019-05-14T15:57:58.923Z,7.35
2019-05-14T15:59:32.650Z,10.45
2019-05-14T16:01:09.661Z,8.60
2019-05-14T16:02:43.082Z,14.10
2019-05-14T16:04:17.415Z,9.83
2019-05-14T16:05:52.244Z,10.15
2019-05-14T16:07:29.130Z,11.73
2019-05-14T16:09:03.069Z,10.30
2019-05-14T16:10:39.739Z,10.80
2019-05-14T16:12:13.904Z,11.75
2019-05-14T16:13:49.354Z,10.53
2019-05-14T16:15:24.638Z,29.57
2019-05-14T16:16:59.389Z,43.87
2019-05-14T16:18:34.212Z,19.02
2019-05-14T16:20:09.244Z,16.23
2019-05-14T16:21:44.385Z,13.25
2019-05-14T16:23:19.065Z,18.07
2019-05-14T16:24:57.107Z,17.98
2019-05-14T16:26:29.918Z,14.20
2019-05-14T16:28:08.790Z,16.12
2019-05-14T16:29:45.941Z,27.52
2019-05-14T16:31:20.211Z,18.65
2019-05-14T16:32:55.089Z,11.05
2019-05-14T16:34:29.886Z,13.53
2019-05-14T16:36:04.501Z,12.73
2019-05-14T16:37:39.525Z,11.85
2019-05-14T16:39:13.775Z,11.73
2019-05-14T16:40:49.059Z,12.20
2019-05-14T16:42:23.703Z,11.53
2019-05-14T16:43:58.766Z,12.58
2019-05-14T16:45:33.208Z,10.98
2019-05-14T16:47:09.934Z,13.95
2019-05-14T16:48:44.633Z,13.95
2019-05-14T16:50:19.415Z,14.58
2019-05-14T16:51:53.653Z,16.60
2019-05-14T16:53:28.743Z,14.10
2019-05-14T16:55:20.520Z,14.15
2019-05-14T16:56:41.506Z,14.25
2019-05-14T16:58:19.187Z,13.72
2019-05-14T16:59:52.730Z,15.75
2019-05-14T17:01:30.716Z,16.12
2019-05-14T17:03:03.849Z,16.30
2019-05-14T17:04:38.740Z,19.75
2019-05-14T17:06:13.939Z,18.92
2019-05-14T17:07:49.039Z,15.40
2019-05-14T17:09:24.172Z,13.05
2019-05-14T17:10:59.079Z,13.93
2019-05-14T17:12:48.378Z,16.10
2019-05-14T17:14:10.389Z,12.05
2019-05-14T17:15:45.177Z,14.30
2019-05-14T17:17:20.091Z,15.72
2019-05-14T17:18:55.128Z,13.70
2019-05-14T17:20:29.694Z,17.35
2019-05-14T17:22:20.158Z,13.93
2019-05-14T17:23:40.476Z,14.35
2019-05-14T17:25:26.750Z,14.58
2019-05-14T17:26:51.944Z,23.25
2019-05-14T17:28:28.691Z,15.68
2019-05-14T17:30:02.761Z,16.20
2019-05-14T17:31:39.178Z,19.05
2019-05-14T17:33:15.034Z,17.30
2019-05-14T17:34:50.224Z,17.10
2019-05-14T17:36:24.494Z,16.73
2019-05-14T17:37:59.371Z,19.75
2019-05-14T17:39:33.772Z,16.67
2019-05-14T17:41:09.474Z,18.87
2019-05-14T17:42:44.016Z,21.42
2019-05-14T17:44:18.810Z,16.70
2019-05-14T17:45:53.327Z,15.23
2019-05-14T17:47:29.016Z,15.95
2019-05-14T17:49:04.112Z,16.75
2019-05-14T17:50:38.965Z,19.37
2019-05-14T17:52:13.618Z,18.42
2019-05-14T17:53:48.395Z,20.65
2019-05-14T17:55:22.671Z,17.82
2019-05-14T17:56:59.234Z,19.75
2019-05-14T17:58:33.532Z,16.48
2019-05-14T18:00:09.802Z,19.65
2019-05-14T18:01:44.753Z,18.62
2019-05-14T18:03:20.872Z,25.05
2019-05-14T18:04:57.078Z,21.15
2019-05-14T18:06:31.874Z,22.87
2019-05-14T18:08:06.097Z,23.62
2019-05-14T18:09:40.881Z,21.70
2019-05-14T18:11:15.589Z,21.30
2019-05-14T18:12:50.417Z,22.42
2019-05-14T18:14:28.205Z,18.85
2019-05-14T18:16:02.312Z,23.83
2019-05-14T18:17:39.205Z,19.42
2019-05-14T18:19:14.075Z,23.02
2019-05-14T18:20:48.858Z,22.17
2019-05-14T18:22:24.550Z,23.70
2019-05-14T18:23:59.138Z,21.42
2019-05-14T18:25:33.924Z,25.95
2019-05-14T18:27:08.391Z,22.95
2019-05-14T18:28:43.268Z,22.75
2019-05-14T18:30:18.793Z,22.60
2019-05-14T18:31:55.070Z,22.98
2019-05-14T18:33:31.329Z,26.23
2019-05-14T18:35:06.968Z,22.35
2019-05-14T18:36:41.453Z,25.62
2019-05-14T18:38:16.345Z,26.75
2019-05-14T18:39:50.566Z,27.35
2019-05-14T18:41:25.329Z,25.35
2019-05-14T18:42:59.838Z,26.27
2019-05-14T18:44:34.656Z,26.07
2019-05-14T18:46:08.876Z,28.07
2019-05-14T18:47:43.712Z,23.35
2019-05-14T18:49:19.535Z,27.60
2019-05-14T18:50:54.649Z,32.48
2019-05-14T18:52:29.841Z,21.02
2019-05-14T18:54:04.739Z,25.57
2019-05-14T18:55:39.215Z,30.27
2019-05-14T18:57:14.138Z,28.40
2019-05-14T18:58:49.027Z,26.20
2019-05-14T19:00:24.205Z,31.82
2019-05-14T19:01:59.448Z,29.50
2019-05-14T19:03:34.350Z,29.27
2019-05-14T19:05:09.379Z,27.77
2019-05-14T19:06:44.229Z,23.62
2019-05-14T19:08:18.638Z,25.57
2019-05-14T19:09:53.457Z,24.98
2019-05-14T19:11:29.157Z,27.60
2019-05-14T19:13:03.937Z,30.60
2019-05-14T19:14:38.982Z,31.60
2019-05-14T19:16:14.005Z,34.88
2019-05-14T19:17:48.897Z,31.82
2019-05-14T19:19:23.830Z,35.20
2019-05-14T19:20:59.210Z,36.00
2019-05-14T19:22:34.392Z,32.28
2019-05-14T19:24:09.080Z,30.40
2019-05-14T19:25:45.585Z,27.32
2019-05-14T19:27:20.302Z,29.15
2019-05-14T19:28:55.182Z,27.05
2019-05-14T19:30:29.413Z,34.63
2019-05-14T19:32:04.196Z,29.07
2019-05-14T19:33:38.678Z,28.45
2019-05-14T19:35:14.849Z,30.23
2019-05-14T19:36:49.987Z,34.50
2019-05-14T19:38:24.836Z,31.85
2019-05-14T19:39:59.593Z,34.50
2019-05-14T19:41:34.489Z,26.33
2019-05-14T19:43:09.423Z,29.87
2019-05-14T19:44:44.573Z,31.85
2019-05-14T19:46:19.105Z,28.92
2019-05-14T19:47:53.898Z,30.20
2019-05-14T19:49:28.857Z,28.73
2019-05-14T19:51:04.038Z,29.07
2019-05-14T19:52:39.014Z,29.63
2019-05-14T19:54:14.202Z,31.62
2019-05-14T19:55:48.726Z,34.65
2019-05-14T19:57:23.552Z,35.48
2019-05-14T19:58:58.114Z,32.88
2019-05-14T20:00:34.949Z,32.08
2019-05-14T20:02:10.824Z,31.55
2019-05-14T20:03:45.604Z,24.82
2019-05-14T20:05:20.252Z,28.83
2019-05-14T20:06:55.109Z,34.30
2019-05-14T20:08:29.652Z,30.25
2019-05-14T20:10:08.498Z,28.75
2019-05-14T20:11:42.604Z,25.75
2019-05-14T20:13:19.330Z,47.08
2019-05-14T20:14:53.317Z,42.33
2019-05-14T20:16:28.524Z,49.73
2019-05-14T20:18:04.828Z,50.25
2019-05-14T20:19:39.822Z,44.88
2019-05-14T20:21:14.018Z,41.50
2019-05-14T20:22:49.960Z,44.15
2019-05-14T20:24:24.779Z,42.65
2019-05-14T20:25:59.602Z,38.45
2019-05-14T20:27:33.821Z,43.00
2019-05-14T20:29:08.877Z,45.05
2019-05-14T20:30:43.689Z,44.63
2019-05-14T20:32:19.341Z,47.03
2019-05-14T20:33:53.768Z,51.55
2019-05-14T20:35:34.602Z,44.85
2019-05-14T20:37:04.901Z,46.92
2019-05-14T20:38:39.669Z,41.83
2019-05-14T20:40:14.161Z,48.45
2019-05-14T20:41:49.171Z,39.85
2019-05-14T20:43:23.788Z,43.17
2019-05-14T20:44:58.637Z,44.23
2019-05-14T20:46:32.922Z,45.65
2019-05-14T20:48:08.927Z,43.78
2019-05-14T20:49:43.901Z,36.65
2019-05-14T20:51:18.752Z,37.08
2019-05-14T20:52:53.028Z,46.13
2019-05-14T20:54:29.017Z,42.35
2019-05-14T20:56:03.533Z,44.80
2019-05-14T20:57:38.783Z,38.73
2019-05-14T20:59:13.152Z,39.92
2019-05-14T21:00:48.512Z,38.28